createdAt,value
2019-01-24T00:00:23.525Z,0.00
2019-01-24T00:01:23.505Z,0.00
2019-01-24T00:02:23.503Z,0.00
2019-01-24T00:03:23.485Z,0.00
2019-01-24T00:04:23.474Z,0.00
2019-01-24T00:05:23.514Z,0.00
2019-01-24T00:06:23.475Z,0.00
2019-01-24T00:07:23.443Z,0.00
2019-01-24T00:08:23.434Z,0.00
2019-01-24T00:09:23.450Z,0.00
2019-01-24T00:10:23.413Z,0.00
2019-01-24T00:11:23.409Z,0.00
2019-01-24T00:12:23.391Z,0.00
2019-01-24T00:13:23.381Z,0.00
2019-01-24T00:14:23.369Z,0.00
2019-01-24T00:15:23.363Z,0.00
2019-01-24T00:16:23.370Z,0.00
2019-01-24T00:17:23.359Z,0.00
2019-01-24T00:18:23.327Z,0.00
2019-01-24T00:19:23.318Z,0.00
2019-01-24T00:20:23.311Z,0.00
2019-01-24T00:21:23.304Z,0.00
2019-01-24T00:22:23.304Z,0.00
2019-01-24T00:23:23.274Z,0.00
2019-01-24T00:24:23.264Z,0.00
2019-01-24T00:25:23.258Z,0.00
2019-01-24T00:26:23.279Z,0.00
2019-01-24T00:27:23.234Z,0.00
2019-01-24T00:28:23.239Z,0.00
2019-01-24T00:29:23.243Z,0.00
2019-01-24T00:30:23.201Z,0.00
2019-01-24T00:31:23.200Z,0.00
2019-01-24T00:32:23.187Z,0.00
2019-01-24T00:33:23.170Z,0.00
2019-01-24T00:34:23.567Z,0.00
2019-01-24T00:35:23.149Z,0.00
2019-01-24T00:36:23.149Z,0.00
2019-01-24T00:37:23.130Z,0.00
2019-01-24T00:38:23.122Z,0.00
2019-01-24T00:39:23.107Z,0.00
2019-01-24T00:40:23.099Z,0.00
2019-01-24T00:41:23.094Z,0.00
2019-01-24T00:42:23.079Z,0.00
2019-01-24T00:43:23.070Z,0.00
2019-01-24T00:44:23.054Z,0.00
2019-01-24T00:45:23.043Z,0.00
2019-01-24T00:46:23.044Z,0.00
2019-01-24T00:47:23.023Z,0.00
2019-01-24T00:48:23.014Z,0.00
2019-01-24T00:49:23.006Z,0.00
2019-01-24T00:50:22.995Z,0.00
2019-01-24T00:51:22.993Z,0.00
2019-01-24T00:52:22.973Z,0.00
2019-01-24T00:53:22.960Z,0.00
2019-01-24T00:54:22.956Z,0.00
2019-01-24T00:55:22.945Z,0.00
2019-01-24T00:56:22.941Z,0.00
2019-01-24T00:57:22.918Z,0.00
2019-01-24T00:58:22.910Z,0.00
2019-01-24T00:59:22.900Z,0.00
2019-01-24T01:00:22.891Z,0.00
2019-01-24T01:01:22.888Z,0.00
2019-01-24T01:02:22.870Z,0.00
2019-01-24T01:03:22.856Z,0.00
2019-01-24T01:04:22.845Z,0.00
2019-01-24T01:05:22.837Z,0.00
2019-01-24T01:06:22.835Z,0.00
2019-01-24T01:07:22.817Z,0.00
2019-01-24T01:08:22.803Z,0.00
2019-01-24T01:09:22.794Z,0.00
2019-01-24T01:10:22.786Z,0.00
2019-01-24T01:11:22.784Z,0.00
2019-01-24T01:12:22.763Z,0.00
2019-01-24T01:13:22.753Z,0.00
2019-01-24T01:14:22.741Z,0.00
2019-01-24T01:15:22.732Z,0.00
2019-01-24T01:16:22.749Z,0.00
2019-01-24T01:17:22.711Z,0.00
2019-01-24T01:18:22.703Z,0.00
2019-01-24T01:19:22.690Z,0.00
2019-01-24T01:20:22.680Z,0.00
2019-01-24T01:21:22.669Z,0.00
2019-01-24T01:22:22.668Z,0.00
2019-01-24T01:23:22.647Z,0.00
2019-01-24T01:24:22.637Z,0.00
2019-01-24T01:25:22.626Z,0.00
2019-01-24T01:26:22.616Z,0.00
2019-01-24T01:27:22.619Z,0.00
2019-01-24T01:28:22.609Z,0.00
2019-01-24T01:29:22.586Z,0.00
2019-01-24T01:30:22.573Z,0.00
2019-01-24T01:31:22.564Z,0.00
2019-01-24T01:32:22.563Z,0.00
2019-01-24T01:33:22.545Z,0.00
2019-01-24T01:34:22.535Z,0.00
2019-01-24T01:35:22.525Z,0.00
2019-01-24T01:36:22.511Z,0.00
2019-01-24T01:37:22.509Z,0.00
2019-01-24T01:38:22.492Z,0.00
2019-01-24T01:39:22.481Z,0.00
2019-01-24T01:40:22.472Z,0.00
2019-01-24T01:41:22.459Z,0.00
2019-01-24T01:42:22.462Z,0.00
2019-01-24T01:43:22.440Z,0.00
2019-01-24T01:44:22.429Z,0.00
2019-01-24T01:45:22.419Z,0.00
2019-01-24T01:46:22.412Z,0.00
2019-01-24T01:47:22.398Z,0.00
2019-01-24T01:48:22.395Z,0.00
2019-01-24T01:49:22.378Z,0.00
2019-01-24T01:50:22.367Z,0.00
2019-01-24T01:51:22.356Z,0.00
2019-01-24T01:52:22.345Z,0.00
2019-01-24T01:53:22.362Z,0.00
2019-01-24T01:54:22.326Z,0.00
2019-01-24T01:55:22.318Z,0.00
2019-01-24T01:56:22.306Z,0.00
2019-01-24T01:57:22.295Z,0.00
2019-01-24T01:58:22.293Z,0.00
2019-01-24T01:59:22.274Z,0.00
2019-01-24T02:00:22.263Z,0.00
2019-01-24T02:01:22.256Z,0.00
2019-01-24T02:02:22.241Z,0.00
2019-01-24T02:03:22.239Z,0.00
2019-01-24T02:04:22.221Z,0.00
2019-01-24T02:05:22.212Z,0.00
2019-01-24T02:06:22.201Z,0.00
2019-01-24T02:07:22.226Z,0.00
2019-01-24T02:08:22.188Z,0.00
2019-01-24T02:09:22.170Z,0.00
2019-01-24T02:10:22.164Z,0.00
2019-01-24T02:11:22.148Z,0.00
2019-01-24T02:12:22.140Z,0.00
2019-01-24T02:13:22.135Z,0.00
2019-01-24T02:14:22.119Z,0.00
2019-01-24T02:15:22.106Z,0.00
2019-01-24T02:16:22.096Z,0.00
2019-01-24T02:17:22.086Z,0.00
2019-01-24T02:18:22.084Z,0.00
2019-01-24T02:19:22.064Z,0.00
2019-01-24T02:20:22.056Z,0.00
2019-01-24T02:21:22.045Z,0.00
2019-01-24T02:22:22.034Z,0.00
2019-01-24T02:23:22.036Z,0.00
2019-01-24T02:24:22.011Z,0.00
2019-01-24T02:25:22.007Z,0.00
2019-01-24T02:26:21.991Z,0.00
2019-01-24T02:27:21.980Z,0.00
2019-01-24T02:28:21.984Z,0.00
2019-01-24T02:29:21.965Z,0.00
2019-01-24T02:30:21.951Z,0.00
2019-01-24T02:31:21.942Z,0.00
2019-01-24T02:32:21.928Z,0.00
2019-01-24T02:33:21.928Z,0.00
2019-01-24T02:34:21.907Z,0.00
2019-01-24T02:35:21.899Z,0.00
2019-01-24T02:36:21.889Z,0.00
2019-01-24T02:37:21.876Z,0.00
2019-01-24T02:38:21.877Z,0.00
2019-01-24T02:39:21.855Z,0.00
2019-01-24T02:40:21.845Z,0.00
2019-01-24T02:41:21.834Z,0.00
2019-01-24T02:42:21.826Z,0.00
2019-01-24T02:43:21.854Z,0.00
2019-01-24T02:44:21.807Z,0.00
2019-01-24T02:45:21.798Z,0.00
2019-01-24T02:46:21.781Z,0.00
2019-01-24T02:47:21.772Z,0.00
2019-01-24T02:48:21.762Z,0.00
2019-01-24T02:49:21.759Z,0.00
2019-01-24T02:50:21.743Z,0.00
2019-01-24T02:51:21.732Z,0.00
2019-01-24T02:52:21.720Z,0.00
2019-01-24T02:53:21.711Z,0.00
2019-01-24T02:54:21.710Z,0.00
2019-01-24T02:55:21.687Z,0.00
2019-01-24T02:56:21.679Z,0.00
2019-01-24T02:57:21.667Z,0.00
2019-01-24T02:58:21.658Z,0.00
2019-01-24T02:59:21.659Z,0.00
2019-01-24T03:00:21.646Z,0.00
2019-01-24T03:01:21.627Z,0.00
2019-01-24T03:02:21.614Z,0.00
2019-01-24T03:03:21.604Z,0.00
2019-01-24T03:04:21.606Z,0.00
2019-01-24T03:05:21.584Z,0.00
2019-01-24T03:06:21.594Z,0.00
2019-01-24T03:07:21.564Z,0.00
2019-01-24T03:08:21.552Z,0.00
2019-01-24T03:09:21.550Z,0.00
2019-01-24T03:10:21.531Z,0.00
2019-01-24T03:11:21.520Z,0.00
2019-01-24T03:12:21.515Z,0.00
2019-01-24T03:13:21.499Z,0.00
2019-01-24T03:14:21.497Z,0.00
2019-01-24T03:15:21.478Z,0.00
2019-01-24T03:16:21.469Z,0.00
2019-01-24T03:17:21.458Z,0.00
2019-01-24T03:18:21.452Z,0.00
2019-01-24T03:19:21.449Z,0.00
2019-01-24T03:20:21.427Z,0.00
2019-01-24T03:21:21.416Z,0.00
2019-01-24T03:22:21.406Z,0.00
2019-01-24T03:23:21.395Z,0.00
2019-01-24T03:24:21.397Z,0.00
2019-01-24T03:25:21.375Z,0.00
2019-01-24T03:26:21.363Z,0.00
2019-01-24T03:27:21.353Z,0.00
2019-01-24T03:28:21.342Z,0.00
2019-01-24T03:29:21.340Z,0.00
2019-01-24T03:30:21.346Z,0.00
2019-01-24T03:31:21.313Z,0.00
2019-01-24T03:32:21.304Z,0.00
2019-01-24T03:33:21.296Z,0.00
2019-01-24T03:34:21.289Z,0.00
2019-01-24T03:35:21.272Z,0.00
2019-01-24T03:36:21.262Z,0.00
2019-01-24T03:37:21.251Z,0.00
2019-01-24T03:38:21.238Z,0.00
2019-01-24T03:39:21.254Z,0.00
2019-01-24T03:40:21.218Z,0.00
2019-01-24T03:41:21.211Z,0.00
2019-01-24T03:42:21.198Z,0.00
2019-01-24T03:43:21.186Z,0.00
2019-01-24T03:44:21.177Z,0.00
2019-01-24T03:45:21.175Z,0.00
2019-01-24T03:46:21.158Z,0.00
2019-01-24T03:47:21.145Z,0.00
2019-01-24T03:48:21.136Z,0.00
2019-01-24T03:49:21.125Z,0.00
2019-01-24T03:50:21.128Z,0.00
2019-01-24T03:51:21.103Z,0.00
2019-01-24T03:52:21.098Z,0.00
2019-01-24T03:53:21.082Z,0.00
2019-01-24T03:54:21.071Z,0.00
2019-01-24T03:55:21.070Z,0.00
2019-01-24T03:56:21.052Z,0.00
2019-01-24T03:57:21.040Z,0.00
2019-01-24T03:58:21.034Z,0.00
2019-01-24T03:59:21.026Z,0.00
2019-01-24T04:00:21.021Z,0.00
2019-01-24T04:01:21.000Z,0.00
2019-01-24T04:02:20.991Z,0.00
2019-01-24T04:03:20.982Z,0.00
2019-01-24T04:04:20.967Z,0.00
2019-01-24T04:05:20.971Z,0.00
2019-01-24T04:06:20.947Z,0.00
2019-01-24T04:07:20.941Z,0.00
2019-01-24T04:08:20.926Z,0.00
2019-01-24T04:09:20.916Z,0.00
2019-01-24T04:10:20.914Z,0.00
2019-01-24T04:11:20.896Z,0.00
2019-01-24T04:12:20.886Z,0.00
2019-01-24T04:13:20.876Z,0.00
2019-01-24T04:14:20.864Z,0.00
2019-01-24T04:15:20.862Z,0.00
2019-01-24T04:16:20.849Z,0.00
2019-01-24T04:17:20.836Z,0.00
2019-01-24T04:18:20.827Z,0.00
2019-01-24T04:19:20.814Z,0.00
2019-01-24T04:20:20.810Z,0.00
2019-01-24T04:21:20.792Z,0.00
2019-01-24T04:22:20.785Z,0.00
2019-01-24T04:23:20.778Z,0.00
2019-01-24T04:24:20.760Z,0.00
2019-01-24T04:25:20.760Z,0.00
2019-01-24T04:26:20.742Z,0.00
2019-01-24T04:27:20.729Z,0.00
2019-01-24T04:28:20.720Z,0.00
2019-01-24T04:29:20.711Z,0.00
2019-01-24T04:30:20.704Z,0.00
2019-01-24T04:31:20.690Z,0.00
2019-01-24T04:32:20.676Z,0.00
2019-01-24T04:33:20.667Z,0.00
2019-01-24T04:34:20.656Z,0.00
2019-01-24T04:35:20.667Z,0.00
2019-01-24T04:36:20.635Z,0.00
2019-01-24T04:37:20.627Z,0.00
2019-01-24T04:38:20.614Z,0.00
2019-01-24T04:39:20.604Z,0.00
2019-01-24T04:40:20.607Z,0.00
2019-01-24T04:41:20.585Z,0.00
2019-01-24T04:42:20.572Z,0.00
2019-01-24T04:43:20.561Z,0.00
2019-01-24T04:44:20.551Z,0.00
2019-01-24T04:45:20.554Z,0.00
2019-01-24T04:46:20.530Z,0.00
2019-01-24T04:47:20.524Z,0.00
2019-01-24T04:48:20.510Z,0.00
2019-01-24T04:49:20.500Z,0.00
2019-01-24T04:50:20.499Z,0.00
2019-01-24T04:51:20.478Z,0.00
2019-01-24T04:52:20.471Z,0.00
2019-01-24T04:53:20.471Z,0.00
2019-01-24T04:54:20.449Z,0.00
2019-01-24T04:55:20.445Z,0.00
2019-01-24T04:56:20.427Z,0.00
2019-01-24T04:57:20.415Z,0.00
2019-01-24T04:58:20.405Z,0.00
2019-01-24T04:59:20.401Z,0.00
2019-01-24T05:00:20.394Z,0.00
2019-01-24T05:01:20.378Z,0.00
2019-01-24T05:02:20.364Z,0.00
2019-01-24T05:03:20.355Z,0.00
2019-01-24T05:04:20.352Z,0.00
2019-01-24T05:05:27.209Z,0.00
2019-01-24T05:06:21.320Z,0.00
2019-01-24T05:07:20.313Z,0.00
2019-01-24T05:08:20.301Z,0.00
2019-01-24T05:09:20.293Z,0.00
2019-01-24T05:10:20.312Z,0.00
2019-01-24T05:11:20.280Z,0.00
2019-01-24T05:12:20.259Z,0.00
2019-01-24T05:13:20.248Z,0.00
2019-01-24T05:14:20.240Z,0.00
2019-01-24T05:15:20.251Z,0.00
2019-01-24T05:16:20.227Z,0.00
2019-01-24T05:17:20.209Z,0.00
2019-01-24T05:18:20.198Z,0.00
2019-01-24T05:19:20.188Z,0.00
2019-01-24T05:20:20.186Z,0.00
2019-01-24T05:21:20.205Z,0.00
2019-01-24T05:22:20.159Z,0.00
2019-01-24T05:23:20.145Z,0.00
2019-01-24T05:24:20.135Z,0.00
2019-01-24T05:25:20.134Z,0.00
2019-01-24T05:26:20.115Z,0.00
2019-01-24T05:27:20.106Z,0.00
2019-01-24T05:28:20.093Z,0.00
2019-01-24T05:29:20.084Z,0.00
2019-01-24T05:30:20.082Z,0.00
2019-01-24T05:31:20.061Z,0.00
2019-01-24T05:32:20.052Z,0.00
2019-01-24T05:33:20.045Z,0.00
2019-01-24T05:34:20.029Z,0.00
2019-01-24T05:35:20.034Z,0.00
2019-01-24T05:36:20.009Z,0.00
2019-01-24T05:37:20.002Z,0.00
2019-01-24T05:38:19.989Z,0.00
2019-01-24T05:39:19.979Z,0.00
2019-01-24T05:40:20.016Z,0.00
2019-01-24T05:41:19.958Z,0.00
2019-01-24T05:42:19.946Z,0.00
2019-01-24T05:43:19.937Z,0.00
2019-01-24T05:44:19.925Z,0.00
2019-01-24T05:45:19.924Z,0.00
2019-01-24T05:46:19.904Z,0.00
2019-01-24T05:47:19.895Z,0.00
2019-01-24T05:48:19.890Z,0.00
2019-01-24T05:49:19.874Z,0.00
2019-01-24T05:50:19.874Z,0.00
2019-01-24T05:51:19.853Z,0.00
2019-01-24T05:52:19.997Z,0.00
2019-01-24T05:53:19.832Z,0.00
2019-01-24T05:54:19.826Z,0.00
2019-01-24T05:55:19.817Z,0.00
2019-01-24T05:56:19.804Z,0.00
2019-01-24T05:57:19.789Z,0.00
2019-01-24T05:58:19.779Z,0.00
2019-01-24T05:59:19.768Z,0.00
2019-01-24T06:00:19.768Z,0.00
2019-01-24T06:01:19.748Z,0.00
2019-01-24T06:02:19.737Z,0.00
2019-01-24T06:03:19.726Z,0.00
2019-01-24T06:04:19.718Z,0.00
2019-01-24T06:05:19.736Z,0.00
2019-01-24T06:06:19.696Z,0.00
2019-01-24T06:07:19.685Z,0.00
2019-01-24T06:08:19.674Z,0.00
2019-01-24T06:09:19.665Z,0.00
2019-01-24T06:10:19.655Z,0.00
2019-01-24T06:11:19.652Z,0.00
2019-01-24T06:12:19.634Z,0.00
2019-01-24T06:13:19.622Z,0.00
2019-01-24T06:14:19.615Z,0.00
2019-01-24T06:15:19.602Z,0.00
2019-01-24T06:16:19.599Z,0.00
2019-01-24T06:17:19.581Z,0.00
2019-01-24T06:18:19.574Z,0.00
2019-01-24T06:19:19.559Z,0.00
2019-01-24T06:20:19.550Z,0.00
2019-01-24T06:21:19.548Z,0.00
2019-01-24T06:22:19.531Z,0.00
2019-01-24T06:23:19.517Z,0.00
2019-01-24T06:24:19.508Z,0.00
2019-01-24T06:25:19.499Z,0.00
2019-01-24T06:26:19.495Z,0.00
2019-01-24T06:27:19.478Z,0.00
2019-01-24T06:28:19.472Z,0.00
2019-01-24T06:29:19.456Z,0.00
2019-01-24T06:30:19.446Z,0.00
2019-01-24T06:31:19.446Z,0.00
2019-01-24T06:32:19.423Z,0.00
2019-01-24T06:33:19.417Z,0.00
2019-01-24T06:34:19.402Z,0.00
2019-01-24T06:35:19.392Z,0.00
2019-01-24T06:36:19.389Z,0.00
2019-01-24T06:37:19.373Z,0.00
2019-01-24T06:38:19.362Z,0.00
2019-01-24T06:39:19.357Z,0.00
2019-01-24T06:40:19.341Z,0.00
2019-01-24T06:41:19.339Z,0.00
2019-01-24T06:42:19.319Z,0.00
2019-01-24T06:43:19.310Z,0.00
2019-01-24T06:44:19.300Z,0.00
2019-01-24T06:45:19.291Z,0.00
2019-01-24T06:46:19.287Z,0.00
2019-01-24T06:47:19.266Z,0.00
2019-01-24T06:48:19.255Z,0.00
2019-01-24T06:49:19.246Z,0.00
2019-01-24T06:50:19.236Z,0.00
2019-01-24T06:51:19.256Z,0.00
2019-01-24T06:52:19.216Z,0.00
2019-01-24T06:53:19.204Z,0.00
2019-01-24T06:54:19.193Z,0.00
2019-01-24T06:55:19.186Z,0.00
2019-01-24T06:56:19.184Z,0.00
2019-01-24T06:57:19.164Z,0.00
2019-01-24T06:58:19.153Z,0.00
2019-01-24T06:59:19.144Z,0.00
2019-01-24T07:00:19.131Z,0.00
2019-01-24T07:01:19.130Z,0.00
2019-01-24T07:02:19.110Z,0.00
2019-01-24T07:03:19.101Z,0.00
2019-01-24T07:04:19.091Z,0.00
2019-01-24T07:05:19.078Z,0.00
2019-01-24T07:06:19.079Z,0.00
2019-01-24T07:07:19.057Z,0.00
2019-01-24T07:08:19.050Z,0.00
2019-01-24T07:09:19.036Z,0.00
2019-01-24T07:10:19.034Z,0.00
2019-01-24T07:11:19.024Z,0.00
2019-01-24T07:12:19.006Z,0.00
2019-01-24T07:13:18.996Z,0.00
2019-01-24T07:14:18.985Z,0.00
2019-01-24T07:15:18.974Z,0.00
2019-01-24T07:16:18.981Z,0.00
2019-01-24T07:17:18.955Z,0.00
2019-01-24T07:18:18.945Z,0.00
2019-01-24T07:19:18.938Z,0.00
2019-01-24T07:20:18.923Z,0.00
2019-01-24T07:21:18.921Z,0.00
2019-01-24T07:22:18.902Z,0.00
2019-01-24T07:23:18.890Z,0.00
2019-01-24T07:24:18.882Z,5.62
2019-01-24T07:25:18.870Z,5.62
2019-01-24T07:26:18.873Z,5.62
2019-01-24T07:27:18.855Z,5.62
2019-01-24T07:28:18.839Z,5.62
2019-01-24T07:29:18.828Z,5.62
2019-01-24T07:30:18.821Z,5.62
2019-01-24T07:31:18.817Z,5.62
2019-01-24T07:32:18.797Z,5.62
2019-01-24T07:33:18.790Z,5.62
2019-01-24T07:34:18.776Z,5.62
2019-01-24T07:35:18.766Z,5.62
2019-01-24T07:36:18.763Z,5.62
2019-01-24T07:37:18.744Z,5.62
2019-01-24T07:38:18.734Z,5.62
2019-01-24T07:39:18.734Z,5.62
2019-01-24T07:40:18.717Z,5.62
2019-01-24T07:41:18.716Z,5.62
2019-01-24T07:42:18.698Z,5.62
2019-01-24T07:43:18.681Z,5.62
2019-01-24T07:44:18.674Z,5.62
2019-01-24T07:45:18.665Z,5.62
2019-01-24T07:46:18.660Z,5.62
2019-01-24T07:47:18.640Z,11.25
2019-01-24T07:48:18.631Z,11.25
2019-01-24T07:49:18.619Z,11.25
2019-01-24T07:50:18.611Z,11.25
2019-01-24T07:51:18.608Z,11.25
2019-01-24T07:52:18.588Z,11.25
2019-01-24T07:53:18.579Z,11.25
2019-01-24T07:54:18.567Z,11.25
2019-01-24T07:55:18.559Z,11.25
2019-01-24T07:56:18.556Z,11.25
2019-01-24T07:57:18.536Z,16.88
2019-01-24T07:58:18.552Z,16.88
2019-01-24T07:59:18.515Z,16.88
2019-01-24T08:00:19.682Z,16.88
2019-01-24T08:01:18.508Z,16.88
2019-01-24T08:02:18.487Z,16.88
2019-01-24T08:03:18.473Z,16.88
2019-01-24T08:04:18.466Z,16.88
2019-01-24T08:05:18.452Z,16.88
2019-01-24T08:06:18.452Z,16.88
2019-01-24T08:07:18.437Z,16.88
2019-01-24T08:08:18.421Z,16.88
2019-01-24T08:09:18.410Z,16.88
2019-01-24T08:10:18.400Z,16.88
2019-01-24T08:11:18.400Z,22.50
2019-01-24T08:12:18.380Z,22.50
2019-01-24T08:13:18.369Z,22.50
2019-01-24T08:14:18.360Z,22.50
2019-01-24T08:15:18.350Z,22.50
2019-01-24T08:16:18.345Z,22.50
2019-01-24T08:17:18.327Z,22.50
2019-01-24T08:18:18.316Z,22.50
2019-01-24T08:19:18.307Z,22.50
2019-01-24T08:20:18.296Z,22.50
2019-01-24T08:21:18.297Z,22.50
2019-01-24T08:22:18.275Z,22.50
2019-01-24T08:23:18.265Z,22.50
2019-01-24T08:24:18.254Z,22.50
2019-01-24T08:25:18.244Z,22.50
2019-01-24T08:26:18.244Z,22.50
2019-01-24T08:27:18.222Z,22.50
2019-01-24T08:28:18.215Z,22.50
2019-01-24T08:29:18.201Z,22.50
2019-01-24T08:30:18.191Z,28.12
2019-01-24T08:31:18.192Z,28.12
2019-01-24T08:32:18.170Z,28.12
2019-01-24T08:33:18.168Z,28.12
2019-01-24T08:34:18.152Z,28.12
2019-01-24T08:35:18.141Z,28.12
2019-01-24T08:36:18.141Z,28.12
2019-01-24T08:37:18.120Z,28.12
2019-01-24T08:38:18.113Z,28.12
2019-01-24T08:39:18.097Z,28.12
2019-01-24T08:40:18.088Z,28.12
2019-01-24T08:41:18.116Z,28.12
2019-01-24T08:42:18.066Z,28.12
2019-01-24T08:43:18.056Z,33.75
2019-01-24T08:44:18.049Z,33.75
2019-01-24T08:45:18.035Z,33.75
2019-01-24T08:46:18.025Z,33.75
2019-01-24T08:47:18.027Z,33.75
2019-01-24T08:48:18.004Z,33.75
2019-01-24T08:49:17.993Z,33.75
2019-01-24T08:50:17.984Z,33.75
2019-01-24T08:51:17.973Z,33.75
2019-01-24T08:52:17.971Z,33.75
2019-01-24T08:53:17.952Z,33.75
2019-01-24T08:54:17.942Z,33.75
2019-01-24T08:55:17.931Z,33.75
2019-01-24T08:56:17.923Z,33.75
2019-01-24T08:57:17.920Z,33.75
2019-01-24T08:58:17.904Z,33.75
2019-01-24T08:59:17.891Z,33.75
2019-01-24T09:00:17.880Z,39.38
2019-01-24T09:01:17.869Z,39.38
2019-01-24T09:02:17.867Z,39.38
2019-01-24T09:03:17.848Z,39.38
2019-01-24T09:04:17.838Z,39.38
2019-01-24T09:05:17.828Z,39.38
2019-01-24T09:06:22.495Z,45.00
2019-01-24T09:07:18.817Z,45.00
2019-01-24T09:08:17.799Z,45.00
2019-01-24T09:09:17.787Z,45.00
2019-01-24T09:10:17.775Z,45.00
2019-01-24T09:11:17.765Z,45.00
2019-01-24T09:12:17.765Z,45.00
2019-01-24T09:13:17.745Z,45.00
2019-01-24T09:14:17.738Z,45.00
2019-01-24T09:15:17.723Z,45.00
2019-01-24T09:16:17.713Z,45.00
2019-01-24T09:17:17.710Z,45.00
2019-01-24T09:18:17.693Z,45.00
2019-01-24T09:19:17.684Z,45.00
2019-01-24T09:20:17.671Z,45.00
2019-01-24T09:21:17.662Z,45.00
2019-01-24T09:22:17.659Z,45.00
2019-01-24T09:23:17.640Z,45.00
2019-01-24T09:24:17.632Z,45.00
2019-01-24T09:25:17.624Z,45.00
2019-01-24T09:26:17.608Z,45.00
2019-01-24T09:27:17.608Z,45.00
2019-01-24T09:28:17.587Z,45.00
2019-01-24T09:29:17.577Z,45.00
2019-01-24T09:30:17.573Z,50.62
2019-01-24T09:31:17.556Z,50.62
2019-01-24T09:32:17.556Z,56.25
2019-01-24T09:33:17.537Z,56.25
2019-01-24T09:34:17.525Z,56.25
2019-01-24T09:35:17.514Z,61.88
2019-01-24T09:36:17.506Z,61.88
2019-01-24T09:37:17.503Z,61.88
2019-01-24T09:38:17.484Z,61.88
2019-01-24T09:39:17.475Z,67.50
2019-01-24T09:40:17.463Z,67.50
2019-01-24T09:41:17.452Z,67.50
2019-01-24T09:42:17.452Z,61.88
2019-01-24T09:43:17.433Z,61.88
2019-01-24T09:44:17.420Z,61.88
2019-01-24T09:45:17.411Z,61.88
2019-01-24T09:46:17.400Z,61.88
2019-01-24T09:47:17.405Z,67.50
2019-01-24T09:48:17.379Z,61.88
2019-01-24T09:49:17.368Z,61.88
2019-01-24T09:50:17.360Z,61.88
2019-01-24T09:51:17.348Z,61.88
2019-01-24T09:52:17.350Z,61.88
2019-01-24T09:53:17.327Z,61.88
2019-01-24T09:54:17.320Z,61.88
2019-01-24T09:55:17.308Z,61.88
2019-01-24T09:56:17.296Z,61.88
2019-01-24T09:57:17.294Z,61.88
2019-01-24T09:58:17.275Z,67.50
2019-01-24T09:59:17.265Z,73.12
2019-01-24T10:00:17.257Z,73.12
2019-01-24T10:01:17.248Z,73.12
2019-01-24T10:02:17.241Z,73.12
2019-01-24T10:03:17.223Z,67.50
2019-01-24T10:04:17.213Z,73.12
2019-01-24T10:05:17.204Z,73.12
2019-01-24T10:06:17.193Z,73.12
2019-01-24T10:07:17.188Z,67.50
2019-01-24T10:08:17.174Z,61.88
2019-01-24T10:09:17.160Z,61.88
2019-01-24T10:10:17.153Z,56.25
2019-01-24T10:11:23.280Z,56.25
2019-01-24T10:12:18.139Z,56.25
2019-01-24T10:13:17.119Z,56.25
2019-01-24T10:14:17.108Z,56.25
2019-01-24T10:15:17.100Z,56.25
2019-01-24T10:16:17.090Z,56.25
2019-01-24T10:17:17.092Z,56.25
2019-01-24T10:18:21.611Z,56.25
2019-01-24T10:19:17.060Z,56.25
2019-01-24T10:20:17.070Z,56.25
2019-01-24T10:21:17.036Z,50.62
2019-01-24T10:22:17.035Z,50.62
2019-01-24T10:23:17.016Z,50.62
2019-01-24T10:24:17.006Z,50.62
2019-01-24T10:25:16.999Z,50.62
2019-01-24T10:26:16.984Z,50.62
2019-01-24T10:27:16.984Z,50.62
2019-01-24T10:28:16.966Z,50.62
2019-01-24T10:29:16.953Z,45.00
2019-01-24T10:30:16.942Z,50.62
2019-01-24T10:31:16.933Z,50.62
2019-01-24T10:32:16.931Z,50.62
2019-01-24T10:33:16.912Z,50.62
2019-01-24T10:34:16.900Z,50.62
2019-01-24T10:35:16.892Z,50.62
2019-01-24T10:36:16.881Z,50.62
2019-01-24T10:37:16.883Z,56.25
2019-01-24T10:38:16.862Z,56.25
2019-01-24T10:39:16.850Z,56.25
2019-01-24T10:40:16.846Z,50.62
2019-01-24T10:41:16.829Z,50.62
2019-01-24T10:42:16.825Z,50.62
2019-01-24T10:43:16.812Z,50.62
2019-01-24T10:44:16.797Z,50.62
2019-01-24T10:45:16.786Z,50.62
2019-01-24T10:46:16.776Z,50.62
2019-01-24T10:47:16.775Z,50.62
2019-01-24T10:48:16.757Z,50.62
2019-01-24T10:49:16.748Z,45.00
2019-01-24T10:50:16.733Z,45.00
2019-01-24T10:51:16.723Z,50.62
2019-01-24T10:52:16.720Z,50.62
2019-01-24T10:53:16.704Z,50.62
2019-01-24T10:54:16.696Z,50.62
2019-01-24T10:55:16.691Z,50.62
2019-01-24T10:56:16.673Z,50.62
2019-01-24T10:57:16.669Z,50.62
2019-01-24T10:58:16.650Z,50.62
2019-01-24T10:59:16.643Z,50.62
2019-01-24T11:00:16.631Z,50.62
2019-01-24T11:01:16.621Z,50.62
2019-01-24T11:02:16.618Z,50.62
2019-01-24T11:03:16.598Z,50.62
2019-01-24T11:04:16.588Z,50.62
2019-01-24T11:05:16.581Z,50.62
2019-01-24T11:06:16.573Z,50.62
2019-01-24T11:07:16.566Z,56.25
2019-01-24T11:08:16.547Z,56.25
2019-01-24T11:09:16.537Z,56.25
2019-01-24T11:10:16.526Z,56.25
2019-01-24T11:11:16.515Z,61.88
2019-01-24T11:12:16.513Z,61.88
2019-01-24T11:13:16.493Z,56.25
2019-01-24T11:14:16.484Z,61.88
2019-01-24T11:15:16.472Z,61.88
2019-01-24T11:16:16.464Z,61.88
2019-01-24T11:17:16.461Z,61.88
2019-01-24T11:18:16.443Z,61.88
2019-01-24T11:19:16.431Z,56.25
2019-01-24T11:20:16.425Z,56.25
2019-01-24T11:21:16.411Z,56.25
2019-01-24T11:22:16.408Z,56.25
2019-01-24T11:23:16.390Z,56.25
2019-01-24T11:24:16.380Z,56.25
2019-01-24T11:25:16.376Z,56.25
2019-01-24T11:26:16.361Z,56.25
2019-01-24T11:27:16.356Z,56.25
2019-01-24T11:28:16.338Z,56.25
2019-01-24T11:29:16.327Z,56.25
2019-01-24T11:30:16.322Z,56.25
2019-01-24T11:31:16.308Z,50.62
2019-01-24T11:32:16.303Z,56.25
2019-01-24T11:33:16.287Z,50.62
2019-01-24T11:34:16.277Z,50.62
2019-01-24T11:35:16.265Z,50.62
2019-01-24T11:36:16.258Z,50.62
2019-01-24T11:37:16.298Z,50.62
2019-01-24T11:38:16.236Z,50.62
2019-01-24T11:39:16.224Z,50.62
2019-01-24T11:40:16.212Z,50.62
2019-01-24T11:41:16.202Z,50.62
2019-01-24T11:42:16.195Z,50.62
2019-01-24T11:43:16.193Z,50.62
2019-01-24T11:44:16.172Z,50.62
2019-01-24T11:45:16.159Z,50.62
2019-01-24T11:46:16.150Z,50.62
2019-01-24T11:47:16.139Z,50.62
2019-01-24T11:48:16.138Z,50.62
2019-01-24T11:49:16.118Z,45.00
2019-01-24T11:50:16.110Z,45.00
2019-01-24T11:51:16.099Z,45.00
2019-01-24T11:52:16.087Z,45.00
2019-01-24T11:53:16.085Z,45.00
2019-01-24T11:54:16.069Z,50.62
2019-01-24T11:55:16.055Z,50.62
2019-01-24T11:56:16.045Z,50.62
2019-01-24T11:57:16.035Z,50.62
2019-01-24T11:58:16.033Z,45.00
2019-01-24T11:59:16.014Z,45.00
2019-01-24T12:00:16.007Z,45.00
2019-01-24T12:01:15.993Z,45.00
2019-01-24T12:02:15.983Z,45.00
2019-01-24T12:03:15.981Z,45.00
2019-01-24T12:04:15.963Z,50.62
2019-01-24T12:05:15.953Z,50.62
2019-01-24T12:06:15.953Z,50.62
2019-01-24T12:07:15.932Z,50.62
2019-01-24T12:08:15.934Z,50.62
2019-01-24T12:09:15.912Z,50.62
2019-01-24T12:10:15.900Z,50.62
2019-01-24T12:11:15.893Z,50.62
2019-01-24T12:12:15.885Z,50.62
2019-01-24T12:13:15.878Z,50.62
2019-01-24T12:14:15.862Z,50.62
2019-01-24T12:15:15.849Z,50.62
2019-01-24T12:16:15.842Z,56.25
2019-01-24T12:17:15.833Z,56.25
2019-01-24T12:18:15.824Z,56.25
2019-01-24T12:19:15.806Z,56.25
2019-01-24T12:20:15.798Z,56.25
2019-01-24T12:21:15.785Z,50.62
2019-01-24T12:22:15.784Z,50.62
2019-01-24T12:23:15.775Z,50.62
2019-01-24T12:24:15.753Z,50.62
2019-01-24T12:25:15.744Z,50.62
2019-01-24T12:26:15.732Z,50.62
2019-01-24T12:27:15.723Z,50.62
2019-01-24T12:28:15.726Z,50.62
2019-01-24T12:29:15.701Z,50.62
2019-01-24T12:30:15.692Z,50.62
2019-01-24T12:31:15.682Z,45.00
2019-01-24T12:32:15.671Z,45.00
2019-01-24T12:33:15.717Z,45.00
2019-01-24T12:34:15.650Z,45.00
2019-01-24T12:35:15.641Z,45.00
2019-01-24T12:36:15.628Z,45.00
2019-01-24T12:37:15.623Z,45.00
2019-01-24T12:38:15.615Z,45.00
2019-01-24T12:39:15.602Z,45.00
2019-01-24T12:40:15.587Z,45.00
2019-01-24T12:41:15.578Z,45.00
2019-01-24T12:42:15.566Z,45.00
2019-01-24T12:43:15.563Z,39.38
2019-01-24T12:44:15.545Z,39.38
2019-01-24T12:45:15.536Z,39.38
2019-01-24T12:46:15.526Z,39.38
2019-01-24T12:47:15.517Z,39.38
2019-01-24T12:48:15.516Z,33.75
2019-01-24T12:49:15.494Z,33.75
2019-01-24T12:50:15.485Z,33.75
2019-01-24T12:51:15.474Z,28.12
2019-01-24T12:52:15.462Z,28.12
2019-01-24T12:53:15.463Z,28.12
2019-01-24T12:54:15.442Z,28.12
2019-01-24T12:55:15.431Z,33.75
2019-01-24T12:56:15.420Z,33.75
2019-01-24T12:57:15.412Z,33.75
2019-01-24T12:58:15.410Z,33.75
2019-01-24T12:59:15.390Z,33.75
2019-01-24T13:00:15.380Z,33.75
2019-01-24T13:01:15.368Z,33.75
2019-01-24T13:02:15.361Z,28.12
2019-01-24T13:03:15.358Z,28.12
2019-01-24T13:04:15.337Z,28.12
2019-01-24T13:05:15.327Z,28.12
2019-01-24T13:06:15.317Z,28.12
2019-01-24T13:07:18.435Z,28.12